sensor_id;sensor_type;location;lat;lon;timestamp;P1;durP1;ratioP1;P2;durP2;ratioP2
22916;SDS011;11624;53.250;7.456;2023-11-19T00:00:19;1.33;;;1.08;;
22916;SDS011;11624;53.250;7.456;2023-11-19T00:02:49;3.00;;;1.33;;
22916;SDS011;11624;53.250;7.456;2023-11-19T00:05:18;1.80;;;1.15;;
22916;SDS011;11624;53.250;7.456;2023-11-19T00:07:46;0.93;;;0.63;;
22916;SDS011;11624;53.250;7.456;2023-11-19T00:10:15;4.35;;;1.30;;
22916;SDS011;11624;53.250;7.456;2023-11-19T00:12:46;1.55;;;1.05;;
22916;SDS011;11624;53.250;7.456;2023-11-19T00:15:16;1.67;;;0.85;;
22916;SDS011;11624;53.250;7.456;2023-11-19T00:17:46;1.05;;;0.82;;
22916;SDS011;11624;53.250;7.456;2023-11-19T00:20:18;0.80;;;0.70;;
22916;SDS011;11624;53.250;7.456;2023-11-19T00:22:48;0.55;;;0.55;;
22916;SDS011;11624;53.250;7.456;2023-11-19T00:25:19;0.30;;;0.30;;
22916;SDS011;11624;53.250;7.456;2023-11-19T00:27:49;1.40;;;0.80;;
22916;SDS011;11624;53.250;7.456;2023-11-19T00:30:20;0.60;;;0.60;;
22916;SDS011;11624;53.250;7.456;2023-11-19T00:32:49;0.85;;;0.38;;
22916;SDS011;11624;53.250;7.456;2023-11-19T00:35:18;1.38;;;0.77;;
22916;SDS011;11624;53.250;7.456;2023-11-19T00:37:47;0.55;;;0.55;;
22916;SDS011;11624;53.250;7.456;2023-11-19T00:40:16;0.47;;;0.47;;
22916;SDS011;11624;53.250;7.456;2023-11-19T00:42:45;0.90;;;0.55;;
22916;SDS011;11624;53.250;7.456;2023-11-19T00:45:14;2.40;;;1.23;;
22916;SDS011;11624;53.250;7.456;2023-11-19T00:47:43;1.00;;;0.82;;
22916;SDS011;11624;53.250;7.456;2023-11-19T00:50:11;1.45;;;0.82;;
22916;SDS011;11624;53.250;7.456;2023-11-19T00:52:44;1.50;;;0.88;;
22916;SDS011;11624;53.250;7.456;2023-11-19T00:55:14;0.77;;;0.55;;
22916;SDS011;11624;53.250;7.456;2023-11-19T00:57:43;11.88;;;1.30;;
22916;SDS011;11624;53.250;7.456;2023-11-19T01:00:11;2.15;;;1.50;;
22916;SDS011;11624;53.250;7.456;2023-11-19T01:02:46;2.28;;;1.02;;
22916;SDS011;11624;53.250;7.456;2023-11-19T01:05:18;2.67;;;1.33;;
22916;SDS011;11624;53.250;7.456;2023-11-19T01:07:51;0.77;;;0.75;;
22916;SDS011;11624;53.250;7.456;2023-11-19T01:10:21;1.00;;;0.45;;
22916;SDS011;11624;53.250;7.456;2023-11-19T01:12:51;0.30;;;0.30;;
22916;SDS011;11624;53.250;7.456;2023-11-19T01:15:20;0.88;;;0.52;;
22916;SDS011;11624;53.250;7.456;2023-11-19T01:17:49;0.82;;;0.65;;
22916;SDS011;11624;53.250;7.456;2023-11-19T01:20:19;2.28;;;0.65;;
22916;SDS011;11624;53.250;7.456;2023-11-19T01:22:48;0.82;;;0.63;;
22916;SDS011;11624;53.250;7.456;2023-11-19T01:25:18;0.43;;;0.43;;
22916;SDS011;11624;53.250;7.456;2023-11-19T01:27:46;0.70;;;0.52;;
22916;SDS011;11624;53.250;7.456;2023-11-19T01:30:17;4.03;;;0.52;;
22916;SDS011;11624;53.250;7.456;2023-11-19T01:32:48;0.73;;;0.55;;
22916;SDS011;11624;53.250;7.456;2023-11-19T01:35:17;3.05;;;1.23;;
22916;SDS011;11624;53.250;7.456;2023-11-19T01:37:44;0.35;;;0.35;;
22916;SDS011;11624;53.250;7.456;2023-11-19T01:40:12;1.00;;;0.75;;
22916;SDS011;11624;53.250;7.456;2023-11-19T01:42:44;0.57;;;0.57;;
22916;SDS011;11624;53.250;7.456;2023-11-19T01:45:17;0.47;;;0.47;;
22916;SDS011;11624;53.250;7.456;2023-11-19T01:47:55;0.20;;;0.20;;
22916;SDS011;11624;53.250;7.456;2023-11-19T01:50:23;2.58;;;1.08;;
22916;SDS011;11624;53.250;7.456;2023-11-19T01:52:52;1.55;;;1.10;;
22916;SDS011;11624;53.250;7.456;2023-11-19T01:55:24;0.40;;;0.40;;
22916;SDS011;11624;53.250;7.456;2023-11-19T01:57:57;2.20;;;1.65;;
22916;SDS011;11624;53.250;7.456;2023-11-19T02:00:29;1.70;;;1.50;;
22916;SDS011;11624;53.250;7.456;2023-11-19T02:03:01;0.70;;;0.57;;
22916;SDS011;11624;53.250;7.456;2023-11-19T02:05:30;2.53;;;1.05;;
22916;SDS011;11624;53.250;7.456;2023-11-19T02:08:00;1.65;;;1.15;;
22916;SDS011;11624;53.250;7.456;2023-11-19T02:10:29;34.80;;;2.83;;
22916;SDS011;11624;53.250;7.456;2023-11-19T02:13:00;1.45;;;0.75;;
22916;SDS011;11624;53.250;7.456;2023-11-19T02:15:32;1.60;;;0.88;;
22916;SDS011;11624;53.250;7.456;2023-11-19T02:18:17;0.30;;;0.30;;
22916;SDS011;11624;53.250;7.456;2023-11-19T02:20:46;1.92;;;1.48;;
22916;SDS011;11624;53.250;7.456;2023-11-19T02:23:16;0.35;;;0.35;;
22916;SDS011;11624;53.250;7.456;2023-11-19T02:25:47;0.70;;;0.65;;
22916;SDS011;11624;53.250;7.456;2023-11-19T02:28:21;6.40;;;2.08;;
22916;SDS011;11624;53.250;7.456;2023-11-19T02:30:49;1.88;;;1.05;;
22916;SDS011;11624;53.250;7.456;2023-11-19T02:33:18;3.38;;;1.13;;
22916;SDS011;11624;53.250;7.456;2023-11-19T02:35:46;1.02;;;0.77;;
22916;SDS011;11624;53.250;7.456;2023-11-19T02:38:15;0.95;;;0.77;;
22916;SDS011;11624;53.250;7.456;2023-11-19T02:40:43;2.70;;;1.05;;
22916;SDS011;11624;53.250;7.456;2023-11-19T02:43:11;0.13;;;0.13;;
22916;SDS011;11624;53.250;7.456;2023-11-19T02:45:41;1.95;;;1.25;;
22916;SDS011;11624;53.250;7.456;2023-11-19T02:48:12;1.20;;;1.08;;
22916;SDS011;11624;53.250;7.456;2023-11-19T02:50:42;0.55;;;0.55;;
22916;SDS011;11624;53.250;7.456;2023-11-19T02:53:10;3.85;;;2.22;;
22916;SDS011;11624;53.250;7.456;2023-11-19T02:55:39;0.60;;;0.60;;
22916;SDS011;11624;53.250;7.456;2023-11-19T02:58:07;0.38;;;0.30;;
22916;SDS011;11624;53.250;7.456;2023-11-19T03:00:48;3.72;;;1.77;;
22916;SDS011;11624;53.250;7.456;2023-11-19T03:03:24;10.80;;;2.75;;
22916;SDS011;11624;53.250;7.456;2023-11-19T03:05:57;1.13;;;0.82;;
22916;SDS011;11624;53.250;7.456;2023-11-19T03:08:26;1.02;;;0.80;;
22916;SDS011;11624;53.250;7.456;2023-11-19T03:10:54;2.42;;;1.20;;
22916;SDS011;11624;53.250;7.456;2023-11-19T03:13:22;1.55;;;0.95;;
22916;SDS011;11624;53.250;7.456;2023-11-19T03:15:52;0.77;;;0.45;;
22916;SDS011;11624;53.250;7.456;2023-11-19T03:18:21;1.88;;;1.38;;
22916;SDS011;11624;53.250;7.456;2023-11-19T03:20:50;2.95;;;1.67;;
22916;SDS011;11624;53.250;7.456;2023-11-19T03:23:18;1.35;;;1.00;;
22916;SDS011;11624;53.250;7.456;2023-11-19T03:25:47;1.83;;;0.90;;
22916;SDS011;11624;53.250;7.456;2023-11-19T03:28:15;0.98;;;0.52;;
22916;SDS011;11624;53.250;7.456;2023-11-19T03:30:44;3.30;;;1.65;;
22916;SDS011;11624;53.250;7.456;2023-11-19T03:33:13;0.57;;;0.55;;
22916;SDS011;11624;53.250;7.456;2023-11-19T03:35:42;10.05;;;1.55;;
22916;SDS011;11624;53.250;7.456;2023-11-19T03:38:10;2.50;;;1.35;;
22916;SDS011;11624;53.250;7.456;2023-11-19T03:40:41;0.80;;;0.55;;
22916;SDS011;11624;53.250;7.456;2023-11-19T03:43:09;3.15;;;2.03;;
22916;SDS011;11624;53.250;7.456;2023-11-19T03:45:39;1.20;;;0.98;;
22916;SDS011;11624;53.250;7.456;2023-11-19T03:48:07;0.95;;;0.80;;
22916;SDS011;11624;53.250;7.456;2023-11-19T03:50:37;1.48;;;1.20;;
22916;SDS011;11624;53.250;7.456;2023-11-19T03:53:06;1.85;;;1.05;;
22916;SDS011;11624;53.250;7.456;2023-11-19T03:55:34;0.43;;;0.30;;
22916;SDS011;11624;53.250;7.456;2023-11-19T03:58:03;1.20;;;0.93;;
22916;SDS011;11624;53.250;7.456;2023-11-19T04:00:32;4.50;;;1.92;;
22916;SDS011;11624;53.250;7.456;2023-11-19T04:03:00;1.60;;;1.27;;
22916;SDS011;11624;53.250;7.456;2023-11-19T04:05:29;3.60;;;1.48;;
22916;SDS011;11624;53.250;7.456;2023-11-19T04:07:59;0.10;;;0.10;;
22916;SDS011;11624;53.250;7.456;2023-11-19T04:10:28;2.10;;;0.95;;
22916;SDS011;11624;53.250;7.456;2023-11-19T04:12:56;4.65;;;2.40;;
22916;SDS011;11624;53.250;7.456;2023-11-19T04:15:24;2.80;;;1.30;;
22916;SDS011;11624;53.250;7.456;2023-11-19T04:17:53;4.10;;;1.90;;
22916;SDS011;11624;53.250;7.456;2023-11-19T04:20:21;0.17;;;0.17;;
22916;SDS011;11624;53.250;7.456;2023-11-19T04:22:50;0.57;;;0.50;;
22916;SDS011;11624;53.250;7.456;2023-11-19T04:25:22;1.58;;;1.38;;
22916;SDS011;11624;53.250;7.456;2023-11-19T04:27:52;1.40;;;0.88;;
22916;SDS011;11624;53.250;7.456;2023-11-19T04:30:21;1.90;;;0.95;;
22916;SDS011;11624;53.250;7.456;2023-11-19T04:32:49;0.98;;;0.65;;
22916;SDS011;11624;53.250;7.456;2023-11-19T04:35:18;14.48;;;2.13;;
22916;SDS011;11624;53.250;7.456;2023-11-19T04:37:46;23.77;;;2.17;;
22916;SDS011;11624;53.250;7.456;2023-11-19T04:40:15;1.83;;;0.95;;
22916;SDS011;11624;53.250;7.456;2023-11-19T04:42:46;9.02;;;1.75;;
22916;SDS011;11624;53.250;7.456;2023-11-19T04:45:15;4.75;;;1.38;;
22916;SDS011;11624;53.250;7.456;2023-11-19T04:47:43;9.23;;;1.55;;
22916;SDS011;11624;53.250;7.456;2023-11-19T04:50:12;2.70;;;1.27;;
22916;SDS011;11624;53.250;7.456;2023-11-19T04:52:40;2.08;;;1.10;;
22916;SDS011;11624;53.250;7.456;2023-11-19T04:55:09;3.55;;;1.65;;
22916;SDS011;11624;53.250;7.456;2023-11-19T04:57:39;7.03;;;2.67;;
22916;SDS011;11624;53.250;7.456;2023-11-19T05:00:10;1.15;;;1.05;;
22916;SDS011;11624;53.250;7.456;2023-11-19T05:02:41;3.30;;;1.38;;
22916;SDS011;11624;53.250;7.456;2023-11-19T05:05:10;8.93;;;2.72;;
22916;SDS011;11624;53.250;7.456;2023-11-19T05:07:38;0.93;;;0.93;;
22916;SDS011;11624;53.250;7.456;2023-11-19T05:10:07;2.05;;;1.23;;
22916;SDS011;11624;53.250;7.456;2023-11-19T05:12:36;0.55;;;0.50;;
22916;SDS011;11624;53.250;7.456;2023-11-19T05:15:05;0.28;;;0.28;;
22916;SDS011;11624;53.250;7.456;2023-11-19T05:17:35;13.25;;;2.20;;
22916;SDS011;11624;53.250;7.456;2023-11-19T05:20:05;2.15;;;1.23;;
22916;SDS011;11624;53.250;7.456;2023-11-19T05:22:40;0.32;;;0.32;;
22916;SDS011;11624;53.250;7.456;2023-11-19T05:25:09;2.65;;;0.95;;
22916;SDS011;11624;53.250;7.456;2023-11-19T05:27:38;1.52;;;1.13;;
22916;SDS011;11624;53.250;7.456;2023-11-19T05:30:06;0.65;;;0.65;;
22916;SDS011;11624;53.250;7.456;2023-11-19T05:32:39;1.60;;;1.00;;
22916;SDS011;11624;53.250;7.456;2023-11-19T05:35:07;1.40;;;0.73;;
22916;SDS011;11624;53.250;7.456;2023-11-19T05:37:36;0.50;;;0.50;;
22916;SDS011;11624;53.250;7.456;2023-11-19T05:40:05;4.60;;;1.50;;
22916;SDS011;11624;53.250;7.456;2023-11-19T05:42:41;3.28;;;1.52;;
22916;SDS011;11624;53.250;7.456;2023-11-19T05:45:11;0.40;;;0.40;;
22916;SDS011;11624;53.250;7.456;2023-11-19T05:47:41;4.22;;;2.13;;
22916;SDS011;11624;53.250;7.456;2023-11-19T05:50:10;2.85;;;0.52;;
22916;SDS011;11624;53.250;7.456;2023-11-19T05:52:39;4.00;;;1.20;;
22916;SDS011;11624;53.250;7.456;2023-11-19T05:55:07;3.45;;;1.92;;
22916;SDS011;11624;53.250;7.456;2023-11-19T05:57:37;4.55;;;2.42;;
22916;SDS011;11624;53.250;7.456;2023-11-19T06:00:09;2.08;;;1.17;;
22916;SDS011;11624;53.250;7.456;2023-11-19T06:02:39;0.45;;;0.45;;
22916;SDS011;11624;53.250;7.456;2023-11-19T06:05:09;0.68;;;0.68;;
22916;SDS011;11624;53.250;7.456;2023-11-19T06:07:38;2.42;;;1.20;;
22916;SDS011;11624;53.250;7.456;2023-11-19T06:10:08;1.30;;;0.80;;
22916;SDS011;11624;53.250;7.456;2023-11-19T06:12:39;9.18;;;1.05;;
22916;SDS011;11624;53.250;7.456;2023-11-19T06:15:08;9.20;;;1.75;;
22916;SDS011;11624;53.250;7.456;2023-11-19T06:17:38;4.50;;;1.95;;
22916;SDS011;11624;53.250;7.456;2023-11-19T06:20:08;6.20;;;1.13;;
22916;SDS011;11624;53.250;7.456;2023-11-19T06:22:38;4.38;;;2.00;;
22916;SDS011;11624;53.250;7.456;2023-11-19T06:25:08;12.52;;;1.42;;
22916;SDS011;11624;53.250;7.456;2023-11-19T06:27:38;1.08;;;0.80;;
22916;SDS011;11624;53.250;7.456;2023-11-19T06:30:06;2.60;;;1.80;;
22916;SDS011;11624;53.250;7.456;2023-11-19T06:32:35;1.30;;;0.80;;
22916;SDS011;11624;53.250;7.456;2023-11-19T06:35:04;5.60;;;2.28;;
22916;SDS011;11624;53.250;7.456;2023-11-19T06:37:35;3.60;;;1.70;;
22916;SDS011;11624;53.250;7.456;2023-11-19T06:40:03;3.42;;;1.52;;
22916;SDS011;11624;53.250;7.456;2023-11-19T06:42:32;4.80;;;2.00;;
22916;SDS011;11624;53.250;7.456;2023-11-19T06:45:01;1.95;;;1.20;;
22916;SDS011;11624;53.250;7.456;2023-11-19T06:47:29;2.67;;;1.23;;
22916;SDS011;11624;53.250;7.456;2023-11-19T06:49:58;4.38;;;2.25;;
22916;SDS011;11624;53.250;7.456;2023-11-19T06:52:26;0.68;;;0.68;;
22916;SDS011;11624;53.250;7.456;2023-11-19T06:54:56;2.53;;;1.55;;
22916;SDS011;11624;53.250;7.456;2023-11-19T06:57:27;3.83;;;2.03;;
22916;SDS011;11624;53.250;7.456;2023-11-19T06:59:56;4.85;;;1.75;;
22916;SDS011;11624;53.250;7.456;2023-11-19T07:02:25;2.95;;;1.75;;
22916;SDS011;11624;53.250;7.456;2023-11-19T07:04:53;4.72;;;2.58;;
22916;SDS011;11624;53.250;7.456;2023-11-19T07:07:22;1.08;;;0.60;;
22916;SDS011;11624;53.250;7.456;2023-11-19T07:09:50;2.45;;;1.30;;
22916;SDS011;11624;53.250;7.456;2023-11-19T07:12:20;8.45;;;2.78;;
22916;SDS011;11624;53.250;7.456;2023-11-19T07:14:48;4.88;;;2.30;;
22916;SDS011;11624;53.250;7.456;2023-11-19T07:17:17;4.47;;;1.85;;
22916;SDS011;11624;53.250;7.456;2023-11-19T07:19:46;5.30;;;2.13;;
22916;SDS011;11624;53.250;7.456;2023-11-19T07:22:17;2.53;;;1.35;;
22916;SDS011;11624;53.250;7.456;2023-11-19T07:24:45;0.73;;;0.73;;
22916;SDS011;11624;53.250;7.456;2023-11-19T07:27:13;1.75;;;1.05;;
22916;SDS011;11624;53.250;7.456;2023-11-19T07:29:44;2.17;;;1.10;;
22916;SDS011;11624;53.250;7.456;2023-11-19T07:32:13;2.45;;;1.25;;
22916;SDS011;11624;53.250;7.456;2023-11-19T07:34:42;3.63;;;1.65;;
22916;SDS011;11624;53.250;7.456;2023-11-19T07:37:10;1.25;;;0.82;;
22916;SDS011;11624;53.250;7.456;2023-11-19T07:39:39;1.25;;;0.70;;
22916;SDS011;11624;53.250;7.456;2023-11-19T07:42:08;4.85;;;1.42;;
22916;SDS011;11624;53.250;7.456;2023-11-19T07:44:37;5.13;;;1.58;;
22916;SDS011;11624;53.250;7.456;2023-11-19T07:47:07;13.15;;;1.65;;
22916;SDS011;11624;53.250;7.456;2023-11-19T07:49:35;3.97;;;2.13;;
22916;SDS011;11624;53.250;7.456;2023-11-19T07:52:03;1.58;;;0.90;;
22916;SDS011;11624;53.250;7.456;2023-11-19T07:54:47;0.73;;;0.68;;
22916;SDS011;11624;53.250;7.456;2023-11-19T07:57:15;6.68;;;1.45;;
22916;SDS011;11624;53.250;7.456;2023-11-19T07:59:44;0.88;;;0.75;;
22916;SDS011;11624;53.250;7.456;2023-11-19T08:02:14;1.00;;;0.88;;
22916;SDS011;11624;53.250;7.456;2023-11-19T08:04:42;7.63;;;3.75;;
22916;SDS011;11624;53.250;7.456;2023-11-19T08:07:12;1.15;;;0.70;;
22916;SDS011;11624;53.250;7.456;2023-11-19T08:09:41;3.38;;;1.75;;
22916;SDS011;11624;53.250;7.456;2023-11-19T08:12:09;1.15;;;0.90;;
22916;SDS011;11624;53.250;7.456;2023-11-19T08:14:37;5.22;;;2.30;;
22916;SDS011;11624;53.250;7.456;2023-11-19T08:17:06;4.57;;;1.42;;
22916;SDS011;11624;53.250;7.456;2023-11-19T08:19:36;2.05;;;0.93;;
22916;SDS011;11624;53.250;7.456;2023-11-19T08:22:04;1.20;;;1.08;;
22916;SDS011;11624;53.250;7.456;2023-11-19T08:24:32;2.20;;;1.27;;
22916;SDS011;11624;53.250;7.456;2023-11-19T08:27:01;1.75;;;1.00;;
22916;SDS011;11624;53.250;7.456;2023-11-19T08:29:29;2.90;;;0.98;;
22916;SDS011;11624;53.250;7.456;2023-11-19T08:31:59;5.38;;;1.95;;
22916;SDS011;11624;53.250;7.456;2023-11-19T08:34:29;4.32;;;1.95;;
22916;SDS011;11624;53.250;7.456;2023-11-19T08:36:58;2.50;;;1.05;;
22916;SDS011;11624;53.250;7.456;2023-11-19T08:39:27;3.97;;;2.20;;
22916;SDS011;11624;53.250;7.456;2023-11-19T08:41:57;3.60;;;1.13;;
22916;SDS011;11624;53.250;7.456;2023-11-19T08:44:25;0.10;;;0.10;;
22916;SDS011;11624;53.250;7.456;2023-11-19T08:46:54;20.35;;;3.22;;
22916;SDS011;11624;53.250;7.456;2023-11-19T08:49:23;0.40;;;0.40;;
22916;SDS011;11624;53.250;7.456;2023-11-19T08:51:52;3.58;;;1.85;;
22916;SDS011;11624;53.250;7.456;2023-11-19T08:54:22;8.35;;;2.78;;
22916;SDS011;11624;53.250;7.456;2023-11-19T08:56:50;0.75;;;0.75;;
22916;SDS011;11624;53.250;7.456;2023-11-19T08:59:18;2.90;;;1.60;;
22916;SDS011;11624;53.250;7.456;2023-11-19T09:01:47;5.60;;;2.72;;
22916;SDS011;11624;53.250;7.456;2023-11-19T09:04:15;6.28;;;1.45;;
22916;SDS011;11624;53.250;7.456;2023-11-19T09:06:44;0.38;;;0.35;;
22916;SDS011;11624;53.250;7.456;2023-11-19T09:09:12;3.63;;;2.10;;
22916;SDS011;11624;53.250;7.456;2023-11-19T09:11:42;2.60;;;1.20;;
22916;SDS011;11624;53.250;7.456;2023-11-19T09:14:11;10.23;;;3.72;;
22916;SDS011;11624;53.250;7.456;2023-11-19T09:16:39;1.23;;;0.88;;
22916;SDS011;11624;53.250;7.456;2023-11-19T09:19:08;2.08;;;1.30;;
22916;SDS011;11624;53.250;7.456;2023-11-19T09:21:36;1.55;;;0.93;;
22916;SDS011;11624;53.250;7.456;2023-11-19T09:24:06;3.22;;;1.98;;
22916;SDS011;11624;53.250;7.456;2023-11-19T09:26:34;4.57;;;2.03;;
22916;SDS011;11624;53.250;7.456;2023-11-19T09:29:07;0.70;;;0.70;;
22916;SDS011;11624;53.250;7.456;2023-11-19T09:31:37;4.53;;;1.63;;
22916;SDS011;11624;53.250;7.456;2023-11-19T09:34:06;0.20;;;0.20;;
22916;SDS011;11624;53.250;7.456;2023-11-19T09:36:34;0.68;;;0.68;;
22916;SDS011;11624;53.250;7.456;2023-11-19T09:39:03;5.30;;;2.30;;
22916;SDS011;11624;53.250;7.456;2023-11-19T09:41:31;5.93;;;1.95;;
22916;SDS011;11624;53.250;7.456;2023-11-19T09:44:01;6.13;;;1.13;;
22916;SDS011;11624;53.250;7.456;2023-11-19T09:46:31;0.98;;;0.70;;
22916;SDS011;11624;53.250;7.456;2023-11-19T09:48:59;2.22;;;1.17;;
22916;SDS011;11624;53.250;7.456;2023-11-19T09:51:30;7.68;;;2.28;;
22916;SDS011;11624;53.250;7.456;2023-11-19T09:53:59;1.27;;;0.75;;
22916;SDS011;11624;53.250;7.456;2023-11-19T09:56:27;1.23;;;0.98;;
22916;SDS011;11624;53.250;7.456;2023-11-19T09:58:57;21.60;;;2.47;;
22916;SDS011;11624;53.250;7.456;2023-11-19T10:01:26;3.88;;;0.82;;
22916;SDS011;11624;53.250;7.456;2023-11-19T10:03:56;2.60;;;1.48;;
22916;SDS011;11624;53.250;7.456;2023-11-19T10:06:25;0.63;;;0.63;;
22916;SDS011;11624;53.250;7.456;2023-11-19T10:08:54;1.40;;;0.55;;
22916;SDS011;11624;53.250;7.456;2023-11-19T10:11:23;3.90;;;1.90;;
22916;SDS011;11624;53.250;7.456;2023-11-19T10:13:51;1.33;;;0.95;;
22916;SDS011;11624;53.250;7.456;2023-11-19T10:16:22;3.30;;;1.55;;
22916;SDS011;11624;53.250;7.456;2023-11-19T10:18:58;1.92;;;1.35;;
22916;SDS011;11624;53.250;7.456;2023-11-19T10:21:26;2.15;;;1.25;;
22916;SDS011;11624;53.250;7.456;2023-11-19T10:23:55;1.77;;;1.38;;
22916;SDS011;11624;53.250;7.456;2023-11-19T10:26:27;2.85;;;1.42;;
22916;SDS011;11624;53.250;7.456;2023-11-19T10:28:56;2.67;;;1.23;;
22916;SDS011;11624;53.250;7.456;2023-11-19T10:31:24;1.85;;;0.95;;
22916;SDS011;11624;53.250;7.456;2023-11-19T10:33:53;0.95;;;0.60;;
22916;SDS011;11624;53.250;7.456;2023-11-19T10:36:23;1.95;;;1.48;;
22916;SDS011;11624;53.250;7.456;2023-11-19T10:39:05;3.20;;;1.88;;
22916;SDS011;11624;53.250;7.456;2023-11-19T10:41:35;2.30;;;1.65;;
22916;SDS011;11624;53.250;7.456;2023-11-19T10:44:04;2.70;;;1.42;;
22916;SDS011;11624;53.250;7.456;2023-11-19T10:46:36;2.38;;;1.10;;
22916;SDS011;11624;53.250;7.456;2023-11-19T10:49:06;16.10;;;1.98;;
22916;SDS011;11624;53.250;7.456;2023-11-19T10:51:36;3.20;;;1.50;;
22916;SDS011;11624;53.250;7.456;2023-11-19T10:54:12;1.42;;;0.85;;
22916;SDS011;11624;53.250;7.456;2023-11-19T10:56:46;3.53;;;1.17;;
22916;SDS011;11624;53.250;7.456;2023-11-19T10:59:18;3.10;;;1.75;;
22916;SDS011;11624;53.250;7.456;2023-11-19T11:01:53;15.73;;;2.30;;
22916;SDS011;11624;53.250;7.456;2023-11-19T11:04:23;6.68;;;1.45;;
22916;SDS011;11624;53.250;7.456;2023-11-19T11:06:54;0.50;;;0.47;;
22916;SDS011;11624;53.250;7.456;2023-11-19T11:09:26;16.95;;;2.13;;
22916;SDS011;11624;53.250;7.456;2023-11-19T11:11:55;0.38;;;0.38;;
22916;SDS011;11624;53.250;7.456;2023-11-19T11:14:25;10.77;;;2.15;;
22916;SDS011;11624;53.250;7.456;2023-11-19T11:16:55;2.38;;;1.10;;
22916;SDS011;11624;53.250;7.456;2023-11-19T11:19:25;1.13;;;0.98;;
22916;SDS011;11624;53.250;7.456;2023-11-19T11:21:55;4.68;;;1.55;;
22916;SDS011;11624;53.250;7.456;2023-11-19T11:24:32;1.05;;;0.68;;
22916;SDS011;11624;53.250;7.456;2023-11-19T11:27:43;29.30;;;4.55;;
22916;SDS011;11624;53.250;7.456;2023-11-19T11:30:26;28.10;;;4.43;;
22916;SDS011;11624;53.250;7.456;2023-11-19T11:33:06;32.97;;;5.05;;
22916;SDS011;11624;53.250;7.456;2023-11-19T11:35:49;35.88;;;5.28;;
22916;SDS011;11624;53.250;7.456;2023-11-19T11:38:24;22.60;;;3.78;;
22916;SDS011;11624;53.250;7.456;2023-11-19T11:43:49;29.38;;;5.05;;
22916;SDS011;11624;53.250;7.456;2023-11-19T11:49:27;31.48;;;5.18;;
22916;SDS011;11624;53.250;7.456;2023-11-19T11:51:58;26.20;;;4.53;;
22916;SDS011;11624;53.250;7.456;2023-11-19T11:54:35;23.75;;;4.55;;
22916;SDS011;11624;53.250;7.456;2023-11-19T11:57:07;34.83;;;5.35;;
22916;SDS011;11624;53.250;7.456;2023-11-19T11:59:43;28.95;;;5.50;;
22916;SDS011;11624;53.250;7.456;2023-11-19T12:02:14;29.05;;;5.90;;
22916;SDS011;11624;53.250;7.456;2023-11-19T12:04:46;27.52;;;4.65;;
22916;SDS011;11624;53.250;7.456;2023-11-19T12:07:17;25.58;;;4.60;;
22916;SDS011;11624;53.250;7.456;2023-11-19T12:09:48;29.77;;;4.40;;
22916;SDS011;11624;53.250;7.456;2023-11-19T12:12:21;24.30;;;4.22;;
22916;SDS011;11624;53.250;7.456;2023-11-19T12:15:00;21.98;;;4.75;;
22916;SDS011;11624;53.250;7.456;2023-11-19T12:17:42;26.27;;;5.07;;
22916;SDS011;11624;53.250;7.456;2023-11-19T12:20:16;18.92;;;4.30;;
22916;SDS011;11624;53.250;7.456;2023-11-19T12:22:49;26.88;;;4.68;;
22916;SDS011;11624;53.250;7.456;2023-11-19T12:25:19;31.98;;;5.10;;
22916;SDS011;11624;53.250;7.456;2023-11-19T12:27:49;28.90;;;4.55;;
22916;SDS011;11624;53.250;7.456;2023-11-19T12:30:21;29.40;;;4.40;;
22916;SDS011;11624;53.250;7.456;2023-11-19T12:32:50;21.33;;;3.80;;
22916;SDS011;11624;53.250;7.456;2023-11-19T12:35:21;31.17;;;5.68;;
22916;SDS011;11624;53.250;7.456;2023-11-19T12:37:51;29.48;;;5.47;;
22916;SDS011;11624;53.250;7.456;2023-11-19T12:40:22;27.65;;;4.18;;
22916;SDS011;11624;53.250;7.456;2023-11-19T12:42:52;27.02;;;5.28;;
22916;SDS011;11624;53.250;7.456;2023-11-19T12:45:21;32.42;;;4.75;;
22916;SDS011;11624;53.250;7.456;2023-11-19T12:48:04;28.02;;;4.25;;
22916;SDS011;11624;53.250;7.456;2023-11-19T12:53:19;23.13;;;5.10;;
22916;SDS011;11624;53.250;7.456;2023-11-19T12:55:49;26.00;;;4.32;;
22916;SDS011;11624;53.250;7.456;2023-11-19T12:58:28;25.35;;;4.88;;
22916;SDS011;11624;53.250;7.456;2023-11-19T13:01:00;26.40;;;5.18;;
22916;SDS011;11624;53.250;7.456;2023-11-19T13:03:30;24.25;;;4.97;;
22916;SDS011;11624;53.250;7.456;2023-11-19T13:06:03;26.27;;;4.47;;
22916;SDS011;11624;53.250;7.456;2023-11-19T13:08:38;21.85;;;3.90;;
22916;SDS011;11624;53.250;7.456;2023-11-19T13:11:09;23.90;;;3.92;;
22916;SDS011;11624;53.250;7.456;2023-11-19T13:13:56;20.35;;;3.83;;
22916;SDS011;11624;53.250;7.456;2023-11-19T13:16:26;26.42;;;4.60;;
22916;SDS011;11624;53.250;7.456;2023-11-19T13:18:56;27.23;;;4.25;;
22916;SDS011;11624;53.250;7.456;2023-11-19T13:21:26;28.50;;;4.70;;
22916;SDS011;11624;53.250;7.456;2023-11-19T13:23:54;24.42;;;4.30;;
22916;SDS011;11624;53.250;7.456;2023-11-19T13:26:24;29.08;;;4.68;;
22916;SDS011;11624;53.250;7.456;2023-11-19T13:28:52;27.58;;;4.70;;
22916;SDS011;11624;53.250;7.456;2023-11-19T13:31:21;26.27;;;4.85;;
22916;SDS011;11624;53.250;7.456;2023-11-19T13:33:49;24.27;;;4.90;;
22916;SDS011;11624;53.250;7.456;2023-11-19T13:36:18;25.25;;;4.43;;
22916;SDS011;11624;53.250;7.456;2023-11-19T13:38:46;25.80;;;3.97;;
22916;SDS011;11624;53.250;7.456;2023-11-19T13:41:14;25.00;;;4.20;;
22916;SDS011;11624;53.250;7.456;2023-11-19T13:43:45;25.27;;;4.88;;
22916;SDS011;11624;53.250;7.456;2023-11-19T13:46:13;28.60;;;5.40;;
22916;SDS011;11624;53.250;7.456;2023-11-19T13:48:42;29.55;;;4.28;;
22916;SDS011;11624;53.250;7.456;2023-11-19T13:51:10;26.15;;;4.78;;
22916;SDS011;11624;53.250;7.456;2023-11-19T13:53:38;28.35;;;5.32;;
22916;SDS011;11624;53.250;7.456;2023-11-19T13:56:09;26.45;;;4.70;;
22916;SDS011;11624;53.250;7.456;2023-11-19T13:58:38;27.67;;;4.15;;
22916;SDS011;11624;53.250;7.456;2023-11-19T14:01:08;27.88;;;4.28;;
22916;SDS011;11624;53.250;7.456;2023-11-19T14:03:40;21.75;;;5.03;;
22916;SDS011;11624;53.250;7.456;2023-11-19T14:06:09;23.02;;;4.65;;
22916;SDS011;11624;53.250;7.456;2023-11-19T14:08:37;37.95;;;5.45;;
22916;SDS011;11624;53.250;7.456;2023-11-19T14:11:05;25.25;;;4.38;;
22916;SDS011;11624;53.250;7.456;2023-11-19T14:13:34;29.88;;;5.75;;
22916;SDS011;11624;53.250;7.456;2023-11-19T14:16:02;26.98;;;4.57;;
22916;SDS011;11624;53.250;7.456;2023-11-19T14:18:34;27.55;;;5.07;;
22916;SDS011;11624;53.250;7.456;2023-11-19T14:21:02;24.45;;;4.22;;
22916;SDS011;11624;53.250;7.456;2023-11-19T14:23:31;29.92;;;5.03;;
22916;SDS011;11624;53.250;7.456;2023-11-19T14:26:00;29.75;;;4.78;;
22916;SDS011;11624;53.250;7.456;2023-11-19T14:28:28;26.92;;;4.90;;
22916;SDS011;11624;53.250;7.456;2023-11-19T14:30:57;23.25;;;4.47;;
22916;SDS011;11624;53.250;7.456;2023-11-19T14:33:26;25.20;;;4.47;;
22916;SDS011;11624;53.250;7.456;2023-11-19T14:35:56;23.50;;;5.00;;
22916;SDS011;11624;53.250;7.456;2023-11-19T14:38:24;35.17;;;6.18;;
22916;SDS011;11624;53.250;7.456;2023-11-19T14:40:53;23.98;;;4.63;;
22916;SDS011;11624;53.250;7.456;2023-11-19T14:43:21;32.85;;;4.65;;
22916;SDS011;11624;53.250;7.456;2023-11-19T14:45:50;24.08;;;4.47;;
22916;SDS011;11624;53.250;7.456;2023-11-19T14:48:21;27.67;;;4.20;;
22916;SDS011;11624;53.250;7.456;2023-11-19T14:50:50;24.60;;;4.25;;
22916;SDS011;11624;53.250;7.456;2023-11-19T14:53:20;26.98;;;5.07;;
22916;SDS011;11624;53.250;7.456;2023-11-19T14:55:49;31.88;;;4.95;;
22916;SDS011;11624;53.250;7.456;2023-11-19T14:58:17;26.00;;;4.05;;
22916;SDS011;11624;53.250;7.456;2023-11-19T15:00:45;27.50;;;4.47;;
22916;SDS011;11624;53.250;7.456;2023-11-19T15:03:14;19.38;;;3.60;;
22916;SDS011;11624;53.250;7.456;2023-11-19T15:05:46;23.17;;;3.83;;
22916;SDS011;11624;53.250;7.456;2023-11-19T15:08:14;26.27;;;3.97;;